createdAt,value
2022-07-31T00:00:17.360Z,2.55
2022-07-31T00:02:44.434Z,2.75
2022-07-31T00:05:11.450Z,2.38
2022-07-31T00:07:38.431Z,2.47
2022-07-31T00:10:05.449Z,2.80
2022-07-31T00:12:32.455Z,2.65
2022-07-31T00:14:59.465Z,3.63
2022-07-31T00:17:26.465Z,2.65
2022-07-31T00:19:53.497Z,2.58
2022-07-31T00:22:20.498Z,2.35
2022-07-31T00:24:47.533Z,2.72
2022-07-31T00:27:14.536Z,2.45
2022-07-31T00:29:41.551Z,2.40
2022-07-31T00:32:08.615Z,3.00
2022-07-31T00:34:35.628Z,2.58
2022-07-31T00:37:02.977Z,2.83
2022-07-31T00:39:30.221Z,2.90
2022-07-31T00:41:57.232Z,3.08
2022-07-31T00:44:24.284Z,2.42
2022-07-31T00:46:52.008Z,2.83
2022-07-31T00:49:19.121Z,2.30
2022-07-31T00:51:46.207Z,2.92
2022-07-31T00:54:17.510Z,2.60
2022-07-31T00:56:49.938Z,3.03
2022-07-31T00:59:24.252Z,2.80
2022-07-31T01:01:51.831Z,2.30
2022-07-31T01:04:18.850Z,2.30
2022-07-31T01:06:46.884Z,2.35
2022-07-31T01:09:13.933Z,2.67
2022-07-31T01:11:40.933Z,2.78
2022-07-31T01:14:08.342Z,2.30
2022-07-31T01:16:35.379Z,3.22
2022-07-31T01:19:02.414Z,2.40
2022-07-31T01:21:29.407Z,2.00
2022-07-31T01:23:56.419Z,2.53
2022-07-31T01:26:23.429Z,2.60
2022-07-31T01:28:51.051Z,2.92
2022-07-31T01:31:26.673Z,2.30
2022-07-31T01:33:54.390Z,2.35
2022-07-31T01:36:21.409Z,2.25
2022-07-31T01:38:48.440Z,2.25
2022-07-31T01:41:15.453Z,2.22
2022-07-31T01:43:42.445Z,2.40
2022-07-31T01:46:09.484Z,2.28
2022-07-31T01:48:36.508Z,2.28
2022-07-31T01:51:03.515Z,2.17
2022-07-31T01:53:30.525Z,2.20
2022-07-31T01:56:03.700Z,2.50
2022-07-31T01:58:31.278Z,1.92
2022-07-31T02:00:58.444Z,2.38
2022-07-31T02:03:43.009Z,2.08
2022-07-31T02:06:11.577Z,1.95
2022-07-31T02:08:38.618Z,1.95
2022-07-31T02:11:05.624Z,2.22
2022-07-31T02:13:32.705Z,1.98
2022-07-31T02:15:59.811Z,1.90
2022-07-31T02:18:26.833Z,2.28
2022-07-31T02:20:53.854Z,2.40
2022-07-31T02:23:20.859Z,2.10
2022-07-31T02:25:47.891Z,2.05
2022-07-31T02:28:14.895Z,2.00
2022-07-31T02:30:41.952Z,2.28
2022-07-31T02:33:08.966Z,2.17
2022-07-31T02:35:36.004Z,2.00
2022-07-31T02:38:02.985Z,2.40
2022-07-31T02:40:29.992Z,2.15
2022-07-31T02:42:56.989Z,2.55
2022-07-31T02:45:24.007Z,2.58
2022-07-31T02:47:50.999Z,2.30
2022-07-31T02:50:20.254Z,2.47
2022-07-31T02:52:47.535Z,2.67
2022-07-31T02:55:14.571Z,2.63
2022-07-31T02:57:44.480Z,2.45
2022-07-31T03:00:11.663Z,2.70
2022-07-31T03:02:38.683Z,2.67
2022-07-31T03:05:05.712Z,2.63
2022-07-31T03:07:32.720Z,2.42
2022-07-31T03:09:59.736Z,2.53
2022-07-31T03:12:26.728Z,3.42
2022-07-31T03:14:53.747Z,2.30
2022-07-31T03:17:20.750Z,2.50
2022-07-31T03:19:47.752Z,2.22
2022-07-31T03:22:15.562Z,2.95
2022-07-31T03:24:42.656Z,2.38
2022-07-31T03:27:10.082Z,2.65
2022-07-31T03:29:42.892Z,2.20
2022-07-31T03:32:10.562Z,2.08
2022-07-31T03:34:37.588Z,2.13
2022-07-31T03:37:04.587Z,2.25
2022-07-31T03:39:31.603Z,2.25
2022-07-31T03:41:58.596Z,2.20
2022-07-31T03:44:25.613Z,2.30
2022-07-31T03:46:52.607Z,2.05
2022-07-31T03:49:19.744Z,2.17
2022-07-31T03:51:46.821Z,2.25
2022-07-31T03:54:13.844Z,2.15
2022-07-31T03:56:40.848Z,2.20
2022-07-31T03:59:12.127Z,2.03
2022-07-31T04:01:57.641Z,2.25
2022-07-31T04:04:25.752Z,2.10
2022-07-31T04:06:52.742Z,2.30
2022-07-31T04:09:19.775Z,2.50
2022-07-31T04:11:46.802Z,2.20
2022-07-31T04:14:13.826Z,2.30
2022-07-31T04:16:40.864Z,2.40
2022-07-31T04:19:07.862Z,2.70
2022-07-31T04:21:34.993Z,2.30
2022-07-31T04:24:02.040Z,3.22
2022-07-31T04:26:29.045Z,2.33
2022-07-31T04:28:56.046Z,2.33
2022-07-31T04:31:24.146Z,2.22
2022-07-31T04:33:55.955Z,2.40
2022-07-31T04:36:29.686Z,2.72
2022-07-31T04:38:57.740Z,2.30
2022-07-31T04:41:24.750Z,3.10
2022-07-31T04:43:51.788Z,2.58
2022-07-31T04:46:18.823Z,2.90
2022-07-31T04:48:45.872Z,2.70
2022-07-31T04:51:16.327Z,2.50
2022-07-31T04:53:43.323Z,2.42
2022-07-31T04:56:10.340Z,2.60
2022-07-31T04:58:37.326Z,2.47
2022-07-31T05:01:04.340Z,2.53
2022-07-31T05:03:31.337Z,2.40
2022-07-31T05:05:58.356Z,2.67
2022-07-31T05:08:25.368Z,2.63
2022-07-31T05:10:52.380Z,2.47
2022-07-31T05:13:19.397Z,2.88
2022-07-31T05:15:46.414Z,2.58
2022-07-31T05:18:13.407Z,2.40
2022-07-31T05:20:40.413Z,2.58
2022-07-31T05:23:07.478Z,2.60
2022-07-31T05:25:34.481Z,2.30
2022-07-31T05:28:01.494Z,2.58
2022-07-31T05:30:30.021Z,3.38
2022-07-31T05:32:57.670Z,2.50
2022-07-31T05:35:24.699Z,2.40
2022-07-31T05:37:51.709Z,2.75
2022-07-31T05:40:18.738Z,2.95
2022-07-31T05:42:45.746Z,3.50
2022-07-31T05:45:12.754Z,2.67
2022-07-31T05:47:40.605Z,2.95
2022-07-31T05:50:07.978Z,2.40
2022-07-31T05:52:34.973Z,2.30
2022-07-31T05:55:01.969Z,2.45
2022-07-31T05:57:33.229Z,2.30
2022-07-31T06:00:03.826Z,2.58
2022-07-31T06:02:31.314Z,2.85
2022-07-31T06:04:58.306Z,2.20
2022-07-31T06:07:25.324Z,2.33
2022-07-31T06:09:52.864Z,3.15
2022-07-31T06:12:19.869Z,2.53
2022-07-31T06:14:46.864Z,2.50
2022-07-31T06:17:13.867Z,2.67
2022-07-31T06:19:40.890Z,2.40
2022-07-31T06:22:08.227Z,2.33
2022-07-31T06:24:35.557Z,5.30
2022-07-31T06:27:05.374Z,2.50
2022-07-31T06:29:41.767Z,2.30
2022-07-31T06:32:09.289Z,2.10
2022-07-31T06:34:36.302Z,2.25
2022-07-31T06:37:03.313Z,2.20
2022-07-31T06:39:54.842Z,2.30
2022-07-31T06:42:17.337Z,2.50
2022-07-31T06:44:46.391Z,2.40
2022-07-31T06:47:13.679Z,2.40
2022-07-31T06:49:41.080Z,2.35
2022-07-31T06:52:08.103Z,2.55
2022-07-31T06:54:35.143Z,2.08
2022-07-31T06:57:02.159Z,2.10
2022-07-31T06:59:39.209Z,1.90
2022-07-31T07:02:07.752Z,2.20
2022-07-31T07:05:00.048Z,2.58
2022-07-31T07:07:22.224Z,2.55
2022-07-31T07:09:49.243Z,2.30
2022-07-31T07:12:16.928Z,2.10
2022-07-31T07:14:44.134Z,2.47
2022-07-31T07:17:11.152Z,2.20
2022-07-31T07:19:38.187Z,2.20
2022-07-31T07:22:05.511Z,1.90
2022-07-31T07:24:32.825Z,1.88
2022-07-31T07:26:59.829Z,2.20
2022-07-31T07:29:26.879Z,1.92
2022-07-31T07:31:53.895Z,2.05
2022-07-31T07:34:20.928Z,1.80
2022-07-31T07:36:47.988Z,2.00
2022-07-31T07:39:15.003Z,2.25
2022-07-31T07:41:42.009Z,2.35
2022-07-31T07:44:09.027Z,1.90
2022-07-31T07:46:36.055Z,1.90
2022-07-31T07:49:03.135Z,1.75
2022-07-31T07:51:30.161Z,2.10
2022-07-31T07:53:57.176Z,1.73
2022-07-31T07:56:24.186Z,2.10
2022-07-31T07:58:51.214Z,1.85
2022-07-31T08:01:18.372Z,2.25
2022-07-31T08:03:48.578Z,2.10
2022-07-31T08:06:17.581Z,2.05
2022-07-31T08:08:44.640Z,2.10
2022-07-31T08:11:17.354Z,2.03
2022-07-31T08:13:49.757Z,1.80
2022-07-31T08:16:17.840Z,1.70
2022-07-31T08:18:44.855Z,1.85
2022-07-31T08:21:11.847Z,1.65
2022-07-31T08:23:38.879Z,1.80
2022-07-31T08:26:06.647Z,1.80
2022-07-31T08:28:33.750Z,1.80
2022-07-31T08:31:00.781Z,1.77
2022-07-31T08:33:27.777Z,1.80
2022-07-31T08:35:54.803Z,2.10
2022-07-31T08:38:21.806Z,1.80
2022-07-31T08:40:48.819Z,1.70
2022-07-31T08:46:03.074Z,2.42
2022-07-31T08:48:30.175Z,1.90
2022-07-31T08:50:57.214Z,1.90
2022-07-31T08:53:24.216Z,1.65
2022-07-31T08:55:56.681Z,2.20
2022-07-31T08:58:24.914Z,1.70
2022-07-31T09:00:52.028Z,1.73
2022-07-31T09:03:19.101Z,1.30
2022-07-31T09:05:46.119Z,2.67
2022-07-31T09:08:14.986Z,2.03
2022-07-31T09:10:46.361Z,1.65
2022-07-31T09:13:16.622Z,2.13
2022-07-31T09:15:43.735Z,2.00
2022-07-31T09:18:10.786Z,2.30
2022-07-31T09:20:37.901Z,2.20
2022-07-31T09:23:04.951Z,2.17
2022-07-31T09:25:31.949Z,2.17
2022-07-31T09:27:58.954Z,2.17
2022-07-31T09:30:26.001Z,2.25
2022-07-31T09:32:53.015Z,1.90
2022-07-31T09:35:20.032Z,2.50
2022-07-31T09:37:47.061Z,2.90
2022-07-31T09:40:14.079Z,2.35
2022-07-31T09:42:45.664Z,2.45
2022-07-31T09:45:13.140Z,1.98
2022-07-31T09:47:40.182Z,2.38
2022-07-31T09:50:07.244Z,2.00
2022-07-31T09:52:34.286Z,1.90
2022-07-31T09:55:01.272Z,1.85
2022-07-31T09:57:28.280Z,2.50
2022-07-31T09:59:55.276Z,2.22
2022-07-31T10:02:22.317Z,2.00
2022-07-31T10:04:49.328Z,2.33
2022-07-31T10:07:32.250Z,2.05
2022-07-31T10:09:59.987Z,2.17
2022-07-31T10:12:27.021Z,2.10
2022-07-31T10:14:54.015Z,2.15
2022-07-31T10:17:21.035Z,2.13
2022-07-31T10:19:48.133Z,1.80
2022-07-31T10:22:15.169Z,2.20
2022-07-31T10:24:42.170Z,2.45
2022-07-31T10:27:09.617Z,1.90
2022-07-31T10:29:36.656Z,2.00
2022-07-31T10:32:03.680Z,2.28
2022-07-31T10:34:30.682Z,1.80
2022-07-31T10:36:58.440Z,1.88
2022-07-31T10:39:25.469Z,1.88
2022-07-31T10:41:52.481Z,2.08
2022-07-31T10:44:19.518Z,1.90
2022-07-31T10:46:46.511Z,1.80
2022-07-31T10:49:13.582Z,2.05
2022-07-31T10:51:40.718Z,1.90
2022-07-31T10:54:07.748Z,2.13
2022-07-31T10:56:34.910Z,1.85
2022-07-31T10:59:01.958Z,2.17
2022-07-31T11:01:29.050Z,1.90
2022-07-31T11:03:56.085Z,2.20
2022-07-31T11:06:23.137Z,1.75
2022-07-31T11:08:50.160Z,2.40
2022-07-31T11:11:17.157Z,1.90
2022-07-31T11:13:44.302Z,1.63
2022-07-31T11:16:11.360Z,2.00
2022-07-31T11:18:38.368Z,2.67
2022-07-31T11:21:17.833Z,1.80
2022-07-31T11:23:57.645Z,2.00
2022-07-31T11:26:41.907Z,2.00
2022-07-31T11:29:59.335Z,2.17
2022-07-31T11:31:56.280Z,1.70
2022-07-31T11:34:23.342Z,1.50
2022-07-31T11:36:51.727Z,1.70
2022-07-31T11:39:18.857Z,1.60
2022-07-31T11:41:52.146Z,1.70
2022-07-31T11:44:19.169Z,1.60
2022-07-31T11:46:46.162Z,1.98
2022-07-31T11:49:13.252Z,1.45
2022-07-31T11:51:40.311Z,1.80
2022-07-31T11:54:07.345Z,1.40
2022-07-31T11:56:34.360Z,1.25
2022-07-31T11:59:01.389Z,1.70
2022-07-31T12:01:28.404Z,1.45
2022-07-31T12:03:55.427Z,1.80
2022-07-31T12:06:22.443Z,1.48
2022-07-31T12:08:49.746Z,1.20
2022-07-31T12:11:16.765Z,1.50
2022-07-31T12:13:43.790Z,1.75
2022-07-31T12:16:10.824Z,1.77
2022-07-31T12:18:37.817Z,1.48
2022-07-31T12:21:04.827Z,1.75
2022-07-31T12:23:41.182Z,1.30
2022-07-31T12:26:08.639Z,0.90
2022-07-31T12:28:35.650Z,0.95
2022-07-31T12:31:02.673Z,0.77
2022-07-31T12:33:29.677Z,1.00
2022-07-31T12:35:57.266Z,0.80
2022-07-31T12:38:40.930Z,1.00
2022-07-31T12:41:11.389Z,2.60
2022-07-31T12:43:38.378Z,1.20
2022-07-31T12:46:05.465Z,1.17
2022-07-31T12:48:36.632Z,0.80
2022-07-31T12:51:06.430Z,0.80
2022-07-31T12:53:33.420Z,0.75
2022-07-31T12:56:00.455Z,1.20
2022-07-31T12:58:27.502Z,0.60
2022-07-31T13:00:54.522Z,0.70
2022-07-31T13:03:21.521Z,1.00
2022-07-31T13:05:51.990Z,0.63
2022-07-31T13:08:19.290Z,0.77
2022-07-31T13:10:46.313Z,0.75
2022-07-31T13:13:13.323Z,1.55
2022-07-31T13:15:40.393Z,1.00
2022-07-31T13:18:07.406Z,1.20
2022-07-31T13:20:34.423Z,0.70
2022-07-31T13:23:01.422Z,0.90
2022-07-31T13:25:28.460Z,1.10
2022-07-31T13:27:55.456Z,0.82
2022-07-31T13:30:22.462Z,0.88
2022-07-31T13:32:49.457Z,1.00
2022-07-31T13:35:26.910Z,0.70
2022-07-31T13:37:55.784Z,1.60
2022-07-31T13:40:22.814Z,0.90
2022-07-31T13:42:49.827Z,0.80
2022-07-31T13:45:16.841Z,0.80
2022-07-31T13:47:51.739Z,0.60
2022-07-31T13:50:19.264Z,0.90
2022-07-31T13:52:46.309Z,0.70
2022-07-31T13:55:13.360Z,0.98
2022-07-31T13:57:40.371Z,0.70
2022-07-31T14:00:07.377Z,0.90
2022-07-31T14:02:34.510Z,0.50
2022-07-31T14:05:01.645Z,0.70
2022-07-31T14:07:45.023Z,0.60
2022-07-31T14:10:20.194Z,0.60
2022-07-31T14:12:47.745Z,0.75
2022-07-31T14:15:14.814Z,0.90
2022-07-31T14:17:41.825Z,0.80
2022-07-31T14:20:08.861Z,0.70
2022-07-31T14:22:35.879Z,0.55
2022-07-31T14:25:02.908Z,1.10
2022-07-31T14:27:29.938Z,0.63
2022-07-31T14:29:57.039Z,0.70
2022-07-31T14:32:24.052Z,0.88
2022-07-31T14:34:51.142Z,0.80
2022-07-31T14:37:18.134Z,0.60
2022-07-31T14:39:45.148Z,0.60
2022-07-31T14:42:12.364Z,1.00
2022-07-31T14:44:39.491Z,0.40
2022-07-31T14:47:06.789Z,0.70
2022-07-31T14:50:08.042Z,0.77
2022-07-31T14:52:21.024Z,0.90
2022-07-31T14:54:48.055Z,0.80
2022-07-31T14:57:20.066Z,0.60
2022-07-31T14:59:49.468Z,0.80
2022-07-31T15:02:21.499Z,0.60
2022-07-31T15:04:49.466Z,0.50
2022-07-31T15:07:34.838Z,0.70
2022-07-31T15:10:02.966Z,0.82
2022-07-31T15:12:29.971Z,0.80
2022-07-31T15:14:57.021Z,0.80
2022-07-31T15:17:24.433Z,0.80
2022-07-31T15:19:51.514Z,1.00
2022-07-31T15:22:18.565Z,0.90
2022-07-31T15:24:49.014Z,1.00
2022-07-31T15:27:16.888Z,0.90
2022-07-31T15:30:05.220Z,0.50
2022-07-31T15:32:30.899Z,1.02
2022-07-31T15:34:57.939Z,1.90
2022-07-31T15:37:24.932Z,3.05
2022-07-31T15:40:01.999Z,2.58
2022-07-31T15:42:30.524Z,2.20
2022-07-31T15:44:57.537Z,3.55
2022-07-31T15:47:24.540Z,1.13
2022-07-31T15:49:51.558Z,1.05
2022-07-31T15:52:19.429Z,1.10
2022-07-31T15:54:46.776Z,1.08
2022-07-31T15:57:14.618Z,0.90
2022-07-31T15:59:41.765Z,0.90
2022-07-31T16:02:08.784Z,1.30
2022-07-31T16:04:35.803Z,1.27
2022-07-31T16:08:28.802Z,1.42
2022-07-31T16:10:04.125Z,8.35
2022-07-31T16:12:43.136Z,5.03
2022-07-31T16:15:10.182Z,1.63
2022-07-31T16:17:37.179Z,2.63
2022-07-31T16:20:04.202Z,2.83
2022-07-31T16:22:31.193Z,1.15
2022-07-31T16:24:58.187Z,3.10
2022-07-31T16:27:25.208Z,1.60
2022-07-31T16:29:59.747Z,1.70
2022-07-31T16:32:29.276Z,1.00
2022-07-31T16:35:00.515Z,0.70
2022-07-31T16:37:50.109Z,0.80
2022-07-31T16:40:28.703Z,1.10
2022-07-31T16:42:58.215Z,1.23
2022-07-31T16:45:25.299Z,1.08
2022-07-31T16:47:52.516Z,1.40
2022-07-31T16:50:19.561Z,1.88
2022-07-31T16:52:48.310Z,1.83
2022-07-31T16:55:17.236Z,1.60
2022-07-31T16:57:44.322Z,0.85
2022-07-31T17:00:11.342Z,0.80
2022-07-31T17:02:38.364Z,0.80
2022-07-31T17:05:05.416Z,1.20
2022-07-31T17:07:32.478Z,1.10
2022-07-31T17:09:59.507Z,0.90
2022-07-31T17:12:26.545Z,1.00
2022-07-31T17:14:53.550Z,1.10
2022-07-31T17:17:20.556Z,1.02
2022-07-31T17:19:47.696Z,1.73
2022-07-31T17:22:17.908Z,1.08
2022-07-31T17:24:45.838Z,0.90
2022-07-31T17:27:12.853Z,1.10
2022-07-31T17:29:39.844Z,0.90
2022-07-31T17:32:06.884Z,0.82
2022-07-31T17:34:34.043Z,1.42
2022-07-31T17:37:01.059Z,1.20
2022-07-31T17:39:30.817Z,1.10
2022-07-31T17:41:58.277Z,1.40
2022-07-31T17:44:25.280Z,1.45
2022-07-31T17:46:52.725Z,1.50
2022-07-31T17:49:20.804Z,1.38
2022-07-31T17:51:58.845Z,1.20
2022-07-31T17:54:27.549Z,1.17
2022-07-31T17:56:55.146Z,1.10
2022-07-31T17:59:22.256Z,1.50
2022-07-31T18:01:51.551Z,1.30
2022-07-31T18:04:19.068Z,1.80
2022-07-31T18:06:46.101Z,1.55
2022-07-31T18:09:13.121Z,1.83
2022-07-31T18:11:40.147Z,1.40
2022-07-31T18:14:07.164Z,1.77
2022-07-31T18:16:34.185Z,2.40
2022-07-31T18:19:01.211Z,1.60
2022-07-31T18:21:30.418Z,1.40
2022-07-31T18:24:00.872Z,2.05
2022-07-31T18:26:30.438Z,1.48
2022-07-31T18:28:57.450Z,1.40
2022-07-31T18:31:33.889Z,1.40
2022-07-31T18:34:02.625Z,1.75
2022-07-31T18:36:29.653Z,1.50
2022-07-31T18:38:56.695Z,1.27
2022-07-31T18:41:23.768Z,1.52
2022-07-31T18:43:50.766Z,1.40
2022-07-31T18:46:17.813Z,1.40
2022-07-31T18:48:44.822Z,1.48
2022-07-31T18:51:11.878Z,1.73
2022-07-31T18:53:38.913Z,1.58
2022-07-31T18:56:06.007Z,1.27
2022-07-31T18:58:33.095Z,1.35
2022-07-31T19:01:00.134Z,1.10
2022-07-31T19:03:27.148Z,1.20
2022-07-31T19:05:54.184Z,1.20
2022-07-31T19:08:21.212Z,1.02
2022-07-31T19:10:48.223Z,1.25
2022-07-31T19:13:17.358Z,1.10
2022-07-31T19:15:46.541Z,1.00
2022-07-31T19:18:14.146Z,1.15
2022-07-31T19:21:00.255Z,1.20
2022-07-31T19:23:29.251Z,1.42
2022-07-31T19:26:04.432Z,1.42
2022-07-31T19:28:31.766Z,1.23
2022-07-31T19:30:58.801Z,1.48
2022-07-31T19:33:25.828Z,1.63
2022-07-31T19:35:58.409Z,1.52
2022-07-31T19:38:28.207Z,1.67
2022-07-31T19:40:55.271Z,1.63
2022-07-31T19:43:22.309Z,1.80
2022-07-31T19:46:10.575Z,1.90
2022-07-31T19:48:36.341Z,1.40
2022-07-31T19:51:03.390Z,1.50
2022-07-31T19:53:30.426Z,1.60
2022-07-31T19:55:57.498Z,1.77
2022-07-31T19:58:24.525Z,1.65
2022-07-31T20:00:51.526Z,1.83
2022-07-31T20:03:18.665Z,1.60
2022-07-31T20:05:45.780Z,1.80
2022-07-31T20:08:12.809Z,1.60
2022-07-31T20:10:39.805Z,2.00
2022-07-31T20:13:07.064Z,1.80
2022-07-31T20:15:51.939Z,1.80
2022-07-31T20:18:23.384Z,1.95
2022-07-31T20:20:56.577Z,2.00
2022-07-31T20:23:24.012Z,1.70
2022-07-31T20:25:51.015Z,1.63
2022-07-31T20:28:18.188Z,2.00
2022-07-31T20:30:45.255Z,1.90
2022-07-31T20:33:13.379Z,1.90
2022-07-31T20:35:49.018Z,2.15
2022-07-31T20:38:17.085Z,2.20
2022-07-31T20:40:52.895Z,1.70
2022-07-31T20:43:21.089Z,1.90
2022-07-31T20:45:48.078Z,2.00
2022-07-31T20:48:15.093Z,1.98
2022-07-31T20:50:42.111Z,1.90
2022-07-31T20:53:10.119Z,2.30
2022-07-31T20:55:37.126Z,2.00
2022-07-31T20:58:04.184Z,1.90
2022-07-31T21:00:31.185Z,2.30
2022-07-31T21:02:58.211Z,2.13
2022-07-31T21:05:26.844Z,1.90
2022-07-31T21:07:54.076Z,1.88
2022-07-31T21:10:21.070Z,2.17
2022-07-31T21:12:48.083Z,2.05
2022-07-31T21:15:41.046Z,2.05
2022-07-31T21:18:02.101Z,2.25
2022-07-31T21:20:52.014Z,2.03
2022-07-31T21:23:17.670Z,2.08
2022-07-31T21:25:44.689Z,2.10
2022-07-31T21:28:11.704Z,2.22
2022-07-31T21:30:38.706Z,2.13
2022-07-31T21:33:05.723Z,2.30
2022-07-31T21:35:36.179Z,2.00
2022-07-31T21:38:04.174Z,2.30
2022-07-31T21:40:31.181Z,2.30
2022-07-31T21:42:58.200Z,2.33
2022-07-31T21:45:25.423Z,2.10
2022-07-31T21:47:56.739Z,2.13
2022-07-31T21:50:28.586Z,2.30
2022-07-31T21:52:56.251Z,2.50
2022-07-31T21:55:23.259Z,2.10
2022-07-31T21:57:59.398Z,2.50
2022-07-31T22:00:28.468Z,2.47
2022-07-31T22:02:56.978Z,2.50
2022-07-31T22:05:23.975Z,2.40
2022-07-31T22:07:51.005Z,2.33
2022-07-31T22:10:18.020Z,2.38
2022-07-31T22:12:45.024Z,2.47
2022-07-31T22:15:15.343Z,2.58
2022-07-31T22:17:42.687Z,2.70
2022-07-31T22:20:09.689Z,2.80
2022-07-31T22:22:36.741Z,2.50
2022-07-31T22:25:03.750Z,2.60
2022-07-31T22:27:30.778Z,2.60
2022-07-31T22:29:57.790Z,2.50
2022-07-31T22:32:24.829Z,2.42
2022-07-31T22:34:51.824Z,2.33
2022-07-31T22:37:18.872Z,2.30
2022-07-31T22:39:45.881Z,2.30
2022-07-31T22:42:12.920Z,2.50
2022-07-31T22:44:39.935Z,2.45
2022-07-31T22:47:06.974Z,2.53
2022-07-31T22:49:34.042Z,2.30
2022-07-31T22:52:01.107Z,2.50
2022-07-31T22:54:28.117Z,2.40
2022-07-31T22:56:55.158Z,3.80
2022-07-31T22:59:22.226Z,2.38
2022-07-31T23:01:49.238Z,2.15
2022-07-31T23:04:16.236Z,2.58
2022-07-31T23:06:43.237Z,2.70
2022-07-31T23:09:10.252Z,2.40
2022-07-31T23:11:37.294Z,2.35
2022-07-31T23:14:04.331Z,2.63
2022-07-31T23:16:31.354Z,2.42
2022-07-31T23:18:58.354Z,2.47
2022-07-31T23:21:25.384Z,2.40
2022-07-31T23:23:52.387Z,3.20
2022-07-31T23:26:19.428Z,2.58
2022-07-31T23:28:46.420Z,2.47
2022-07-31T23:31:13.428Z,2.30
2022-07-31T23:33:40.459Z,2.60
2022-07-31T23:36:07.491Z,2.90
2022-07-31T23:38:34.499Z,2.75
2022-07-31T23:41:01.511Z,2.25
2022-07-31T23:43:28.510Z,2.25
2022-07-31T23:45:55.601Z,2.88
2022-07-31T23:48:23.865Z,2.50
2022-07-31T23:50:56.405Z,2.10
2022-07-31T23:53:23.412Z,2.53
2022-07-31T23:55:50.439Z,2.10
2022-07-31T23:58:17.450Z,2.10
